Riachao, Brazil
Current Conditions -  °F | °C
As of 9:00 AM on Sunday 23 Nov 2014 (Local Time) from SBIZ Reporting Station
Broken Clouds Broken Clouds  
Wind Chill: 84°   Ceiling: 1500
Heat Index: 88°   Visibility: 6mi
Dew Point: 70°   Wind: 9mph
Humidity: 62%   Direction: 90°E
Pressure: 29.88"   Gusts: NA
Location:  7.36°S, 46.62°W
Report Text: SBIZ 231200Z 09008KT 9999 BKN015 29/21 Q1012
Loading
Personal Weather Stations






























Interactive Weather Map New forecast layout! Learn more

10-Day Weather Forecast

Advertisements
Track Severe Weather on mobile